Time;durP1;ratioP1;P1;durP2;ratioP2;P2;SDS_P1;SDS_P2;PMS_P1;PMS_P2;Temp;Humidity;BMP_temperature;BMP_pressure;BME280_temperature;BME280_humidity;BME280_pressure;Samples;Min_cycle;Max_cycle;Signal;HPM_P1;HPM_P2
2023/08/14 00:00:43;;;;;;;0.85;0.60;;;;;;;20.76;84.76;100912.75;4998775;28;20042;-63
2023/08/14 00:03:08;;;;;;;0.68;0.60;;;;;;;20.82;84.46;100919.28;5003564;28;20108;-63
2023/08/14 00:05:34;;;;;;;3.15;0.50;;;;;;;20.78;84.15;100918.56;5003419;28;20405;-63
2023/08/14 00:08:00;;;;;;;0.38;0.30;;;;;;;20.82;84.11;100918.50;5003380;28;20022;-63
2023/08/14 00:10:26;;;;;;;1.65;0.60;;;;;;;20.71;84.35;100917.94;4985807;28;20451;-63
2023/08/14 00:12:52;;;;;;;1.48;0.50;;;;;;;20.72;84.57;100913.97;5003838;28;20172;-63
2023/08/14 00:15:17;;;;;;;1.95;0.70;;;;;;;20.76;84.33;100920.97;4998556;28;20121;-63
2023/08/14 00:17:42;;;;;;;1.38;0.55;;;;;;;20.65;84.69;100921.13;5003775;28;20030;-63
2023/08/14 00:20:09;;;;;;;2.35;1.33;;;;;;;20.63;84.81;100914.53;5005568;28;20044;-63
2023/08/14 00:22:34;;;;;;;2.17;0.60;;;;;;;20.74;84.71;100911.59;5004682;28;20437;-63
2023/08/14 00:25:00;;;;;;;0.55;0.50;;;;;;;20.79;83.90;100916.63;4985412;28;20081;-63
2023/08/14 00:27:25;;;;;;;1.15;0.60;;;;;;;20.67;84.24;100918.75;4998567;28;20034;-63
2023/08/14 00:29:51;;;;;;;0.50;0.45;;;;;;;20.57;84.72;100925.19;4991513;28;20081;-63
2023/08/14 00:32:16;;;;;;;2.30;0.63;;;;;;;20.52;84.55;100928.38;5000125;28;20477;-63
2023/08/14 00:34:43;;;;;;;0.52;0.47;;;;;;;20.23;85.95;100912.81;4995660;28;20113;-63
2023/08/14 00:37:08;;;;;;;0.73;0.55;;;;;;;20.18;86.11;100916.81;4984593;28;20037;-64
2023/08/14 00:39:34;;;;;;;0.82;0.55;;;;;;;20.13;86.80;100911.00;4980053;28;20026;-63
2023/08/14 00:41:59;;;;;;;0.93;0.52;;;;;;;19.99;86.96;100903.00;5004453;28;20892;-63
2023/08/14 00:44:24;;;;;;;1.02;0.45;;;;;;;20.07;87.12;100904.44;5005799;28;20046;-63
2023/08/14 00:46:50;;;;;;;0.63;0.50;;;;;;;20.16;86.58;100900.00;4983279;28;20030;-63
2023/08/14 00:49:16;;;;;;;0.93;0.45;;;;;;;20.23;86.19;100913.59;5005050;28;20481;-63
2023/08/14 00:51:42;;;;;;;1.35;0.75;;;;;;;20.23;86.13;100910.06;4989255;28;20123;-63
2023/08/14 00:54:08;;;;;;;0.30;0.30;;;;;;;20.30;85.73;100899.03;4979088;28;20079;-63
2023/08/14 00:56:34;;;;;;;0.80;0.50;;;;;;;20.19;85.52;100901.16;4986667;28;20038;-63
2023/08/14 00:59:00;;;;;;;0.95;0.60;;;;;;;20.13;85.50;100900.81;4984647;28;20045;-63
2023/08/14 01:01:26;;;;;;;0.73;0.30;;;;;;;19.96;86.48;100898.31;4978643;28;20401;-63
2023/08/14 01:03:51;;;;;;;0.50;0.40;;;;;;;19.86;86.96;100891.06;5002985;28;20481;-64
2023/08/14 01:06:17;;;;;;;0.50;0.47;;;;;;;19.74;87.66;100893.16;4989908;28;20030;-63
2023/08/14 01:08:43;;;;;;;0.30;0.22;;;;;;;19.66;88.44;100899.13;4985763;28;20041;-63
2023/08/14 01:11:21;;;;;;;0.40;0.40;;;;;;;19.61;88.78;100892.16;4991058;28;20112;-63
2023/08/14 01:13:59;;;;;;;0.30;0.30;;;;;;;19.65;88.26;100889.38;4986288;28;20088;-63
2023/08/14 01:16:32;;;;;;;1.00;0.55;;;;;;;19.63;88.55;100886.28;5001534;28;20034;-63
2023/08/14 01:18:59;;;;;;;4.03;1.55;;;;;;;19.70;88.44;100889.69;5002117;28;20029;-63
2023/08/14 01:21:42;;;;;;;0.70;0.55;;;;;;;19.69;88.02;100892.84;4997540;28;20100;-63
2023/08/14 01:24:24;;;;;;;0.30;0.30;;;;;;;19.70;88.13;100895.16;4991963;28;20034;-63
2023/08/14 01:26:50;;;;;;;0.98;0.70;;;;;;;19.67;87.85;100892.47;5000977;28;20026;-63
2023/08/14 01:29:16;;;;;;;0.80;0.40;;;;;;;19.51;88.65;100890.31;4996136;28;20390;-63
2023/08/14 01:31:41;;;;;;;1.58;0.50;;;;;;;19.31;89.33;100899.53;4996999;28;20389;-63
2023/08/14 01:34:27;;;;;;;3.10;0.47;;;;;;;19.37;89.79;100900.66;4976837;28;20112;-63
2023/08/14 01:37:12;;;;;;;1.60;0.30;;;;;;;19.30;89.41;100895.25;4984172;28;20047;-63
2023/08/14 01:39:56;;;;;;;0.65;0.45;;;;;;;19.30;89.92;100904.22;4967875;28;20471;-63
2023/08/14 01:42:37;;;;;;;0.60;0.40;;;;;;;19.47;89.32;100897.78;4975647;28;20061;-63
2023/08/14 01:45:27;;;;;;;0.82;0.28;;;;;;;19.51;88.74;100909.44;4983444;28;20096;-63
2023/08/14 01:47:55;;;;;;;3.42;0.88;;;;;;;19.63;88.52;100911.66;4928122;29;20039;-63
2023/08/14 01:50:23;;;;;;;1.67;1.08;;;;;;;19.53;88.06;100912.56;4928971;29;20040;-63
2023/08/14 01:52:49;;;;;;;0.52;0.52;;;;;;;19.45;88.34;100916.56;4924856;29;20046;-63
2023/08/14 01:55:14;;;;;;;1.58;0.60;;;;;;;19.50;88.65;100905.19;4909306;29;20791;-63
2023/08/14 01:57:40;;;;;;;0.98;0.75;;;;;;;19.53;88.15;100912.56;4928052;29;20105;-63
2023/08/14 02:00:08;;;;;;;0.40;0.40;;;;;;;19.59;88.13;100910.91;4925575;29;20039;-63
2023/08/14 02:02:58;;;;;;;0.43;0.30;;;;;;;19.61;87.65;100902.31;4926102;29;20450;-63
2023/08/14 02:05:24;;;;;;;0.75;0.57;;;;;;;19.55;87.31;100902.00;4867708;29;20493;-63
2023/08/14 02:07:49;;;;;;;1.48;0.50;;;;;;;19.53;87.66;100898.13;4876710;29;20131;-63
2023/08/14 02:10:15;;;;;;;1.15;0.60;;;;;;;19.56;87.51;100887.16;4872311;29;20049;-63
2023/08/14 02:12:41;;;;;;;0.57;0.38;;;;;;;19.53;87.58;100884.47;4865821;29;20038;-63
2023/08/14 02:15:07;;;;;;;1.58;0.93;;;;;;;19.59;87.51;100889.06;4859591;29;20455;-63
2023/08/14 02:17:33;;;;;;;1.17;0.80;;;;;;;19.60;87.72;100887.09;4851742;29;20081;-63
2023/08/14 02:19:58;;;;;;;0.80;0.55;;;;;;;19.51;87.85;100886.84;4862244;29;20438;-63
2023/08/14 02:22:25;;;;;;;1.00;0.50;;;;;;;19.36;88.35;100886.22;4870290;29;20049;-63
2023/08/14 02:24:52;;;;;;;2.38;0.52;;;;;;;19.45;88.10;100874.81;4887874;29;20112;-63
2023/08/14 02:27:18;;;;;;;1.35;0.50;;;;;;;19.41;88.32;100877.59;4924928;29;20123;-63
2023/08/14 02:29:45;;;;;;;0.95;0.70;;;;;;;19.48;88.12;100869.31;4922495;29;20131;-63
2023/08/14 02:32:10;;;;;;;1.13;0.60;;;;;;;19.47;87.63;100873.19;4917249;29;20515;-63
2023/08/14 02:34:48;;;;;;;1.63;0.80;;;;;;;19.35;88.25;100867.53;4898784;29;20122;-63
2023/08/14 02:37:14;;;;;;;1.55;0.75;;;;;;;19.26;88.48;100876.16;4928326;29;20067;-63
2023/08/14 02:39:41;;;;;;;1.02;0.70;;;;;;;19.37;88.37;100882.31;4926159;29;20044;-63
2023/08/14 02:42:06;;;;;;;0.60;0.40;;;;;;;19.43;87.89;100877.97;4956007;28;20491;-63
2023/08/14 02:44:33;;;;;;;1.38;0.50;;;;;;;19.43;87.97;100875.22;5002985;28;20065;-63
2023/08/14 02:46:58;;;;;;;1.40;0.70;;;;;;;19.46;87.56;100877.13;4998828;28;20023;-63
2023/08/14 02:49:25;;;;;;;0.80;0.45;;;;;;;19.27;88.13;100877.72;5008046;28;20045;-63
2023/08/14 02:51:52;;;;;;;0.80;0.60;;;;;;;19.10;88.66;100872.47;4980794;28;20122;-63
2023/08/14 02:54:18;;;;;;;0.60;0.50;;;;;;;19.16;89.27;100876.31;5000193;28;20038;-63
2023/08/14 02:56:43;;;;;;;0.60;0.47;;;;;;;19.26;88.63;100884.34;5001370;28;20400;-63
2023/08/14 02:59:08;;;;;;;0.70;0.57;;;;;;;19.01;88.92;100870.19;4993573;28;20039;-63
2023/08/14 03:01:54;;;;;;;1.85;0.70;;;;;;;19.01;89.98;100878.38;4977697;28;20091;-63
2023/08/14 03:04:20;;;;;;;1.00;0.70;;;;;;;18.98;89.43;100868.28;4908949;29;20051;-63
2023/08/14 03:06:45;;;;;;;0.60;0.60;;;;;;;18.89;90.22;100870.75;4911579;29;20040;-63
2023/08/14 03:09:11;;;;;;;0.70;0.70;;;;;;;18.79;90.63;100874.34;4926387;29;20035;-63
2023/08/14 03:11:37;;;;;;;1.00;0.60;;;;;;;18.78;90.31;100878.25;4930598;29;20478;-63
2023/08/14 03:14:02;;;;;;;0.32;0.30;;;;;;;18.92;89.79;100870.69;4909428;29;20530;-63
2023/08/14 03:16:28;;;;;;;1.00;0.60;;;;;;;18.87;89.76;100873.09;4915021;29;20107;-63
2023/08/14 03:18:53;;;;;;;2.67;0.60;;;;;;;18.84;90.43;100868.44;4927731;29;20123;-63
2023/08/14 03:21:19;;;;;;;1.30;0.55;;;;;;;18.83;89.91;100867.66;4938596;29;20050;-63
2023/08/14 03:23:45;;;;;;;0.68;0.68;;;;;;;19.02;89.46;100874.50;4921244;29;20102;-63
2023/08/14 03:26:10;;;;;;;3.58;0.82;;;;;;;19.06;88.84;100871.72;4915271;29;20032;-63
2023/08/14 03:28:36;;;;;;;0.57;0.40;;;;;;;19.12;88.35;100881.81;4897484;29;20418;-63
2023/08/14 03:31:01;;;;;;;0.75;0.70;;;;;;;19.13;88.30;100872.41;4897165;29;20051;-63
2023/08/14 03:33:28;;;;;;;0.57;0.40;;;;;;;19.16;88.05;100866.16;4926283;29;20065;-63
2023/08/14 03:35:54;;;;;;;1.42;0.88;;;;;;;19.07;88.23;100859.59;4901378;29;20044;-63
2023/08/14 03:38:23;;;;;;;1.13;0.55;;;;;;;19.08;88.06;100856.50;4915071;29;20027;-63
2023/08/14 03:40:49;;;;;;;1.67;0.63;;;;;;;18.96;88.65;100857.00;4923722;28;20070;-63
2023/08/14 03:43:15;;;;;;;1.13;0.68;;;;;;;18.92;88.99;100865.25;4975160;28;20076;-63
2023/08/14 03:45:40;;;;;;;2.33;0.55;;;;;;;18.88;89.08;100861.00;4982302;28;20084;-63
2023/08/14 03:48:06;;;;;;;1.90;0.70;;;;;;;18.88;89.41;100861.00;4995136;28;20038;-63
2023/08/14 03:50:31;;;;;;;0.75;0.68;;;;;;;18.84;89.43;100854.78;4977660;28;20041;-63
2023/08/14 03:52:57;;;;;;;0.43;0.43;;;;;;;18.82;89.74;100857.94;4983835;28;20072;-63
2023/08/14 03:55:22;;;;;;;0.75;0.68;;;;;;;18.84;89.56;100855.56;4983985;28;20038;-63
2023/08/14 03:57:47;;;;;;;2.20;0.70;;;;;;;18.81;89.02;100864.56;5005518;28;20034;-63
2023/08/14 04:00:13;;;;;;;1.02;0.55;;;;;;;18.79;89.48;100849.78;4985581;28;20052;-63
2023/08/14 04:02:39;;;;;;;1.20;0.57;;;;;;;18.73;89.53;100854.91;4988422;28;20105;-63
2023/08/14 04:05:06;;;;;;;1.63;1.05;;;;;;;18.80;89.56;100862.22;4975661;28;20485;-63
2023/08/14 04:07:31;;;;;;;0.63;0.43;;;;;;;18.81;89.15;100870.00;4981578;28;20481;-63
2023/08/14 04:09:57;;;;;;;2.58;0.95;;;;;;;18.76;89.57;100867.72;4989222;28;20026;-63
2023/08/14 04:12:22;;;;;;;1.25;0.63;;;;;;;18.76;89.65;100864.22;4976953;28;20030;-63
2023/08/14 04:14:51;;;;;;;0.50;0.40;;;;;;;18.76;89.86;100858.75;4987603;28;20029;-63
2023/08/14 04:17:17;;;;;;;1.42;0.75;;;;;;;18.83;89.30;100858.72;4978288;28;20033;-62
2023/08/14 04:19:42;;;;;;;2.00;0.55;;;;;;;18.73;89.35;100863.09;4995416;28;20041;-63
2023/08/14 04:22:08;;;;;;;0.65;0.65;;;;;;;18.53;90.30;100855.88;4977313;28;20053;-63
2023/08/14 04:24:34;;;;;;;0.82;0.70;;;;;;;18.61;90.34;100858.13;4974127;28;20033;-63
2023/08/14 04:26:59;;;;;;;1.52;0.73;;;;;;;18.64;90.19;100867.47;4996917;28;20049;-63
2023/08/14 04:29:25;;;;;;;0.57;0.55;;;;;;;18.65;90.36;100867.06;4992028;28;20244;-63
2023/08/14 04:31:51;;;;;;;1.40;0.43;;;;;;;18.60;90.54;100866.72;4995151;28;20041;-63
2023/08/14 04:34:17;;;;;;;0.60;0.60;;;;;;;18.61;90.66;100862.81;4989299;28;20061;-63
2023/08/14 04:36:46;;;;;;;0.88;0.60;;;;;;;18.65;90.87;100867.06;4985963;28;20018;-62
2023/08/14 04:39:12;;;;;;;0.93;0.63;;;;;;;18.70;90.59;100865.84;4976709;28;20026;-63
2023/08/14 04:41:38;;;;;;;0.82;0.47;;;;;;;18.81;90.33;100867.28;4990250;28;20044;-63
2023/08/14 04:44:03;;;;;;;0.65;0.60;;;;;;;18.77;90.37;100861.09;4974971;28;20068;-63
2023/08/14 04:46:39;;;;;;;1.08;0.50;;;;;;;18.83;90.58;100858.72;4974141;28;20029;-63
2023/08/14 04:49:06;;;;;;;1.50;0.80;;;;;;;18.73;90.48;100865.03;4988240;28;20029;-63
2023/08/14 04:51:31;;;;;;;1.70;0.75;;;;;;;18.71;90.98;100860.00;4992008;28;20510;-63
2023/08/14 04:53:59;;;;;;;1.35;0.60;;;;;;;18.66;91.40;100867.84;4991984;28;20047;-63
2023/08/14 04:56:45;;;;;;;0.73;0.70;;;;;;;18.67;91.76;100864.72;4974174;28;20056;-63
2023/08/14 04:59:10;;;;;;;0.70;0.40;;;;;;;18.76;91.10;100856.03;4929880;29;20083;-62
2023/08/14 05:01:36;;;;;;;0.90;0.57;;;;;;;18.74;91.66;100861.13;4920509;29;20115;-63
2023/08/14 05:04:01;;;;;;;0.57;0.50;;;;;;;18.84;91.62;100871.94;4927931;29;20044;-63
2023/08/14 05:06:47;;;;;;;0.30;0.30;;;;;;;18.93;91.18;100861.31;4936524;29;20044;-63
2023/08/14 05:09:14;;;;;;;1.60;0.60;;;;;;;18.80;92.01;100857.56;4878806;29;20048;-62
2023/08/14 05:11:39;;;;;;;0.75;0.57;;;;;;;18.91;92.60;100866.41;4880044;29;20088;-62
2023/08/14 05:14:06;;;;;;;0.93;0.73;;;;;;;18.97;92.02;100857.78;4875791;29;20526;-63
2023/08/14 05:16:32;;;;;;;2.95;0.75;;;;;;;19.01;92.52;100858.53;4895741;29;20120;-63
2023/08/14 05:18:58;;;;;;;0.90;0.63;;;;;;;19.04;92.60;100863.94;4872449;29;20381;-61
2023/08/14 05:21:23;;;;;;;0.93;0.77;;;;;;;19.15;92.89;100869.28;4886330;29;20033;-63
2023/08/14 05:23:49;;;;;;;1.55;0.93;;;;;;;19.13;92.67;100866.16;4876374;29;20127;-65
2023/08/14 05:26:14;;;;;;;0.70;0.57;;;;;;;19.22;92.96;100859.03;4892236;29;20560;-65
2023/08/14 05:28:40;;;;;;;0.90;0.70;;;;;;;19.28;93.11;100865.59;4891597;29;20024;-65
2023/08/14 05:31:08;;;;;;;1.30;0.85;;;;;;;19.34;93.02;100874.94;4900102;29;20055;-65
2023/08/14 05:33:34;;;;;;;0.68;0.57;;;;;;;19.40;93.01;100867.84;4889727;29;20112;-65
2023/08/14 05:35:59;;;;;;;0.60;0.60;;;;;;;19.47;93.52;100867.72;4903416;29;20459;-65
2023/08/14 05:38:24;;;;;;;0.55;0.55;;;;;;;19.63;93.04;100872.59;4926275;29;20074;-65
2023/08/14 05:40:50;;;;;;;1.02;0.60;;;;;;;19.76;92.91;100874.38;4907061;29;20079;-65
2023/08/14 05:43:16;;;;;;;1.08;0.68;;;;;;;19.89;93.33;100877.34;4924177;29;20040;-65
2023/08/14 05:45:43;;;;;;;1.92;0.95;;;;;;;20.08;92.83;100879.41;4942270;28;20444;-65
2023/08/14 05:48:09;;;;;;;1.15;0.95;;;;;;;20.25;92.48;100883.06;4995353;28;20038;-65
2023/08/14 05:50:35;;;;;;;2.88;1.13;;;;;;;;;;4971921;28;20058;-65
2023/08/14 05:53:03;;;;;;;5.57;1.40;;;;;;;20.72;90.85;100875.66;4989516;28;20022;-65
2023/08/14 05:55:39;;;;;;;1.48;1.10;;;;;;;21.01;90.28;100873.97;5002706;28;20081;-65
2023/08/14 05:58:08;;;;;;;1.95;1.15;;;;;;;21.18;88.74;100876.38;4989669;28;20066;-65
2023/08/14 06:00:35;;;;;;;1.95;0.95;;;;;;;21.36;87.86;100876.81;4982016;28;20165;-65
2023/08/14 06:03:21;;;;;;;2.25;1.08;;;;;;;21.68;87.22;100867.91;4993492;28;20049;-65
2023/08/14 06:05:47;;;;;;;1.92;0.98;;;;;;;21.86;85.97;100870.28;4978217;28;20142;-65
2023/08/14 06:08:12;;;;;;;2.83;1.10;;;;;;;21.94;84.89;100877.16;4980608;28;20161;-65
2023/08/14 06:10:38;;;;;;;2.30;1.10;;;;;;;22.03;83.62;100883.59;4979354;28;20496;-66
2023/08/14 06:13:04;;;;;;;0.98;0.85;;;;;;;22.24;84.25;100880.34;4964140;28;20038;-65
2023/08/14 06:15:29;;;;;;;3.05;1.10;;;;;;;22.10;82.65;100869.72;4956276;28;20490;-65
2023/08/14 06:17:54;;;;;;;1.38;0.82;;;;;;;22.33;82.09;100882.50;4968228;28;20503;-65
2023/08/14 06:20:20;;;;;;;1.92;0.93;;;;;;;22.40;80.47;100891.34;4985097;28;20532;-65
2023/08/14 06:22:46;;;;;;;2.38;1.30;;;;;;;22.57;81.43;100894.88;4979149;28;20046;-65
2023/08/14 06:25:13;;;;;;;1.80;1.10;;;;;;;22.53;80.87;100891.41;4986488;28;20569;-65
2023/08/14 06:27:39;;;;;;;2.90;0.85;;;;;;;22.52;80.02;100889.88;4964813;28;20485;-65
2023/08/14 06:30:08;;;;;;;2.08;1.38;;;;;;;22.75;79.79;100889.72;4985467;28;20046;-65
2023/08/14 06:32:34;;;;;;;3.33;1.05;;;;;;;22.60;80.50;100896.78;4977354;28;20413;-65
2023/08/14 06:35:20;;;;;;;1.63;1.20;;;;;;;22.50;79.83;100897.78;4987547;28;20030;-65
2023/08/14 06:37:45;;;;;;;1.67;1.00;;;;;;;22.45;80.01;100901.03;4940053;29;20047;-65
2023/08/14 06:40:11;;;;;;;1.40;0.80;;;;;;;22.66;80.37;100906.03;4949685;29;20054;-65
2023/08/14 06:42:36;;;;;;;3.50;1.10;;;;;;;22.81;82.37;100907.22;4950435;29;20189;-65
2023/08/14 06:45:04;;;;;;;1.20;0.98;;;;;;;22.73;81.18;100903.09;4944388;29;20050;-65
2023/08/14 06:47:29;;;;;;;1.83;0.95;;;;;;;22.73;81.49;100903.09;4934061;29;20092;-65
2023/08/14 06:49:55;;;;;;;2.33;1.10;;;;;;;22.94;80.53;100902.53;4926599;29;20133;-65
2023/08/14 06:52:20;;;;;;;3.10;1.08;;;;;;;23.26;79.40;100907.97;4950565;29;20038;-65
2023/08/14 06:54:46;;;;;;;2.90;1.10;;;;;;;23.49;79.53;100906.19;4952129;29;20046;-65
2023/08/14 06:57:11;;;;;;;1.98;1.30;;;;;;;23.47;78.54;100903.09;4951493;29;20043;-65
2023/08/14 06:59:37;;;;;;;2.55;0.90;;;;;;;23.28;78.66;100900.06;4950070;29;20039;-65
2023/08/14 07:02:02;;;;;;;3.70;1.00;;;;;;;23.20;78.99;100906.97;4934509;29;20566;-65
2023/08/14 07:04:28;;;;;;;1.60;0.90;;;;;;;23.34;78.40;100899.53;4950493;29;20138;-65
2023/08/14 07:06:53;;;;;;;3.13;1.10;;;;;;;23.59;78.90;100903.13;4944169;29;20570;-65
2023/08/14 07:09:18;;;;;;;1.75;0.93;;;;;;;23.91;79.05;100904.91;4947542;29;20504;-65
2023/08/14 07:11:44;;;;;;;0.68;0.68;;;;;;;24.23;77.67;100903.97;4941372;29;20155;-65
2023/08/14 07:14:10;;;;;;;2.97;1.00;;;;;;;24.52;75.65;100910.09;4949771;28;20169;-65
2023/08/14 07:16:38;;;;;;;1.15;0.80;;;;;;;24.60;73.27;100911.41;4995268;28;20030;-65
2023/08/14 07:19:03;;;;;;;2.65;0.75;;;;;;;24.43;71.81;100919.03;4994253;28;20034;-65
2023/08/14 07:21:29;;;;;;;2.70;1.52;;;;;;;24.32;73.02;100912.31;5006911;28;20052;-65
2023/08/14 07:23:54;;;;;;;5.47;1.23;;;;;;;24.70;72.52;100919.31;4988567;28;20022;-65
2023/08/14 07:26:20;;;;;;;1.75;0.80;;;;;;;24.98;71.07;100923.13;5008835;28;20499;-65
2023/08/14 07:28:45;;;;;;;2.45;0.63;;;;;;;25.07;71.71;100916.94;5001988;28;20401;-66
2023/08/14 07:31:11;;;;;;;1.63;0.90;;;;;;;25.41;71.17;100903.88;5008183;28;20014;-65
2023/08/14 07:33:36;;;;;;;5.88;1.08;;;;;;;25.42;69.91;100905.41;4994529;28;20038;-65
2023/08/14 07:36:06;;;;;;;2.08;0.80;;;;;;;25.23;71.27;100892.69;4995543;28;20042;-65
2023/08/14 07:38:32;;;;;;;2.33;0.77;;;;;;;25.50;72.00;100901.16;4983480;28;20742;-64
2023/08/14 07:40:57;;;;;;;3.90;1.15;;;;;;;25.56;68.64;100901.34;4995356;28;20048;-64
2023/08/14 07:43:23;;;;;;;0.98;0.73;;;;;;;25.72;69.30;100909.41;5001025;28;20409;-64
2023/08/14 07:45:49;;;;;;;2.05;1.08;;;;;;;25.69;68.94;100904.78;5005750;28;20058;-64
2023/08/14 07:48:15;;;;;;;2.28;0.85;;;;;;;26.02;69.36;100914.16;4985598;28;20033;-64
2023/08/14 07:50:40;;;;;;;1.38;0.85;;;;;;;26.13;69.53;100911.75;5002169;28;20089;-64
2023/08/14 07:53:06;;;;;;;1.10;0.60;;;;;;;26.13;69.24;100908.25;5006772;28;20087;-63
2023/08/14 07:55:31;;;;;;;3.53;0.85;;;;;;;26.14;68.54;100893.97;5006095;28;20029;-64
2023/08/14 07:57:57;;;;;;;2.95;1.27;;;;;;;26.33;68.04;100900.31;4989326;28;20481;-64
2023/08/14 08:00:22;;;;;;;0.60;0.60;;;;;;;26.38;67.00;100888.69;5000464;28;20052;-64
2023/08/14 08:02:48;;;;;;;1.70;1.05;;;;;;;26.11;66.87;100894.91;4994145;28;20102;-63
2023/08/14 08:05:13;;;;;;;1.05;0.95;;;;;;;26.38;67.64;100892.22;5007103;28;20499;-64
2023/08/14 08:07:39;;;;;;;2.40;1.10;;;;;;;26.44;67.19;100887.59;5003180;28;20029;-64
2023/08/14 08:10:05;;;;;;;3.28;1.10;;;;;;;26.43;67.13;100883.31;5006298;28;20041;-64
2023/08/14 08:12:30;;;;;;;3.17;1.00;;;;;;;26.36;68.03;100900.19;4984972;28;20030;-65
2023/08/14 08:14:56;;;;;;;1.42;0.90;;;;;;;26.55;68.27;100887.94;5001319;28;20022;-64
2023/08/14 08:17:21;;;;;;;2.90;0.90;;;;;;;26.56;67.27;100897.00;4994331;28;20077;-63
2023/08/14 08:19:47;;;;;;;4.45;1.08;;;;;;;26.59;66.06;100898.84;5003194;28;20038;-64
2023/08/14 08:22:13;;;;;;;2.00;1.00;;;;;;;26.72;66.59;100892.00;5009743;28;20061;-64
2023/08/14 08:24:38;;;;;;;2.67;1.13;;;;;;;26.96;66.88;100897.69;5010125;28;20030;-65
2023/08/14 08:27:04;;;;;;;1.15;0.88;;;;;;;27.13;67.19;100896.13;4997973;28;20451;-64
2023/08/14 08:29:30;;;;;;;3.35;1.00;;;;;;;27.16;64.33;100900.75;5004040;28;20511;-63
2023/08/14 08:31:55;;;;;;;1.42;1.02;;;;;;;27.31;65.06;100898.13;4992873;28;20507;-63
2023/08/14 08:34:20;;;;;;;1.73;0.70;;;;;;;27.31;65.00;100901.63;4994426;28;20034;-64
2023/08/14 08:36:46;;;;;;;1.17;0.85;;;;;;;27.26;64.71;100898.72;5005617;28;20069;-64
2023/08/14 08:39:11;;;;;;;1.70;0.90;;;;;;;27.43;63.53;100891.66;5003944;28;20099;-64
2023/08/14 08:41:39;;;;;;;0.68;0.68;;;;;;;27.49;64.19;100889.78;5003960;28;20037;-64
2023/08/14 08:44:17;;;;;;;1.02;0.75;;;;;;;27.66;65.25;100899.31;4978654;28;20030;-64
2023/08/14 08:46:50;;;;;;;2.53;1.08;;;;;;;26.93;63.32;100892.28;5001778;28;20041;-64
2023/08/14 08:49:17;;;;;;;1.02;0.70;;;;;;;27.18;66.32;100900.28;4996843;28;20037;-65
2023/08/14 08:51:44;;;;;;;3.00;0.95;;;;;;;27.55;65.51;100888.72;4999842;28;20433;-66
2023/08/14 08:54:12;;;;;;;2.38;0.80;;;;;;;27.74;62.02;100903.25;4994183;28;20087;-65
2023/08/14 08:56:37;;;;;;;3.15;1.10;;;;;;;27.74;63.69;100902.50;4997647;28;20045;-66
2023/08/14 08:59:03;;;;;;;1.38;0.82;;;;;;;27.66;62.72;100894.53;5000887;28;20390;-66
2023/08/14 09:01:29;;;;;;;1.73;0.90;;;;;;;27.82;62.96;100890.63;4992307;28;20045;-65
2023/08/14 09:03:55;;;;;;;3.00;1.00;;;;;;;27.53;61.04;100874.56;5001258;28;20042;-65
2023/08/14 09:06:21;;;;;;;2.60;1.02;;;;;;;27.81;61.46;100883.56;5003850;28;20034;-65
2023/08/14 09:08:46;;;;;;;1.00;0.70;;;;;;;28.06;60.84;100887.94;5001052;28;20160;-66
2023/08/14 09:11:12;;;;;;;1.80;0.93;;;;;;;27.75;58.44;100881.88;4997546;28;20040;-66
2023/08/14 09:13:38;;;;;;;1.65;0.75;;;;;;;27.16;59.57;100878.59;5002066;28;20026;-65
2023/08/14 09:16:04;;;;;;;2.88;0.95;;;;;;;27.47;61.35;100884.72;5003031;28;20038;-66
2023/08/14 09:18:31;;;;;;;0.70;0.70;;;;;;;27.79;59.19;100877.72;4986078;28;20485;-66
2023/08/14 09:20:57;;;;;;;1.00;0.80;;;;;;;27.94;60.19;100880.56;5009375;28;20038;-66
2023/08/14 09:23:22;;;;;;;2.05;0.70;;;;;;;28.02;59.20;100888.13;4986915;28;20048;-66
2023/08/14 09:25:50;;;;;;;0.70;0.68;;;;;;;28.30;59.41;100897.81;4984066;28;20037;-66
2023/08/14 09:28:17;;;;;;;1.20;0.68;;;;;;;28.31;60.77;100899.38;5006277;28;20458;-66
2023/08/14 09:30:43;;;;;;;3.10;0.70;;;;;;;28.15;59.51;100899.75;5005812;28;20393;-66
2023/08/14 09:33:11;;;;;;;1.52;0.63;;;;;;;27.94;58.79;100889.69;5003629;28;20040;-66
2023/08/14 09:35:38;;;;;;;1.42;0.77;;;;;;;27.86;59.59;100890.44;5001775;28;20041;-66
2023/08/14 09:38:05;;;;;;;1.90;0.70;;;;;;;27.81;58.02;100886.34;5001148;28;20037;-66
2023/08/14 09:40:31;;;;;;;0.93;0.60;;;;;;;27.95;57.52;100893.97;4978876;28;20029;-65
2023/08/14 09:42:57;;;;;;;1.15;0.73;;;;;;;28.03;56.07;100886.13;5002616;28;20030;-65
2023/08/14 09:45:24;;;;;;;3.90;1.15;;;;;;;27.94;56.28;100877.81;5034634;22;20045;-63
2023/08/14 09:47:50;;;;;;;1.52;0.70;;;;;;;28.18;58.33;100876.66;5008275;28;20139;-65
2023/08/14 09:50:17;;;;;;;1.92;0.93;;;;;;;28.46;57.11;100883.56;5030627;28;20482;-65
2023/08/14 09:52:43;;;;;;;2.28;0.75;;;;;;;28.52;56.18;100889.22;5041506;28;20090;-63
2023/08/14 09:55:09;;;;;;;1.00;0.80;;;;;;;28.58;59.65;100883.81;5046969;28;20033;-63
2023/08/14 09:57:34;;;;;;;2.03;1.05;;;;;;;28.76;57.89;100889.22;5043291;28;20025;-62
2023/08/14 10:00:00;;;;;;;1.38;0.88;;;;;;;28.70;58.24;100886.34;5048217;28;20037;-63
2023/08/14 10:02:26;;;;;;;1.95;0.95;;;;;;;28.69;56.06;100887.56;5035239;28;20072;-63
2023/08/14 10:04:53;;;;;;;3.17;0.75;;;;;;;28.56;56.31;100877.97;5019218;28;20128;-63
2023/08/14 10:07:23;;;;;;;2.03;1.02;;;;;;;28.40;57.47;100874.34;5017097;28;20024;-62
2023/08/14 10:09:55;;;;;;;1.08;0.85;;;;;;;28.09;57.69;100873.13;5042887;28;20124;-62
2023/08/14 10:12:28;;;;;;;1.15;1.00;;;;;;;28.02;59.07;100865.19;5045954;28;20040;-63
2023/08/14 10:15:08;;;;;;;1.73;0.77;;;;;;;28.05;60.04;100859.47;5047770;28;20032;-63
2023/08/14 10:17:40;;;;;;;2.88;0.88;;;;;;;28.12;60.34;100861.91;5025932;28;20048;-63
2023/08/14 10:20:06;;;;;;;6.55;1.60;;;;;;;28.02;61.03;100856.88;5028101;28;20502;-63
2023/08/14 10:22:33;;;;;;;1.30;1.20;;;;;;;28.10;64.94;100858.84;5048156;28;20056;-62
2023/08/14 10:25:02;;;;;;;1.80;1.15;;;;;;;28.16;61.76;100851.41;5048171;28;20105;-63
2023/08/14 10:27:29;;;;;;;3.47;0.90;;;;;;;28.13;61.66;100857.09;5039996;28;20034;-63
2023/08/14 10:29:55;;;;;;;2.63;1.33;;;;;;;28.12;61.29;100839.75;5042288;28;20481;-63
2023/08/14 10:32:21;;;;;;;1.55;1.08;;;;;;;28.14;59.66;100845.56;5036641;28;20017;-62
2023/08/14 10:34:48;;;;;;;2.60;0.90;;;;;;;28.19;58.50;100842.16;5045495;28;20112;-63
2023/08/14 10:37:28;;;;;;;1.58;1.20;;;;;;;27.99;58.37;100841.94;5034133;28;20045;-63
2023/08/14 10:40:16;;;;;;;1.52;1.00;;;;;;;27.92;60.19;100850.59;5025463;28;20392;-63
2023/08/14 10:42:44;;;;;;;2.80;1.27;;;;;;;27.93;61.01;100856.91;5024120;28;20025;-63
2023/08/14 10:45:10;;;;;;;1.27;0.90;;;;;;;27.92;61.27;100850.59;5038906;28;20032;-63
2023/08/14 10:47:37;;;;;;;2.83;1.25;;;;;;;28.27;60.98;100846.09;5046275;28;20045;-62
2023/08/14 10:50:23;;;;;;;1.00;0.75;;;;;;;28.80;60.39;100843.44;5041881;28;20048;-63
2023/08/14 10:52:52;;;;;;;1.73;1.10;;;;;;;29.30;61.46;100847.16;5047143;28;20111;-62
2023/08/14 10:55:39;;;;;;;2.10;0.88;;;;;;;29.66;56.67;100843.94;5019497;28;20071;-63
2023/08/14 10:58:38;;;;;;;1.52;0.98;;;;;;;29.96;55.61;100831.56;5044358;28;20103;-63
2023/08/14 11:01:06;;;;;;;1.15;0.90;;;;;;;30.41;54.43;100835.69;4998923;28;20045;-63
2023/08/14 11:03:34;;;;;;;4.28;1.13;;;;;;;30.57;55.07;100820.47;5018096;28;20071;-63
2023/08/14 11:05:59;;;;;;;1.38;0.90;;;;;;;30.74;52.49;100830.53;5042037;28;20029;-63
2023/08/14 11:08:29;;;;;;;0.95;0.85;;;;;;;30.78;52.54;100836.63;5038166;28;20062;-63
2023/08/14 11:10:54;;;;;;;1.13;0.73;;;;;;;30.76;52.20;100830.06;5049939;28;20048;-63
2023/08/14 11:13:20;;;;;;;1.05;0.70;;;;;;;31.08;52.17;100837.22;5039044;28;20033;-63
2023/08/14 11:15:46;;;;;;;0.95;0.77;;;;;;;31.25;51.47;100840.16;5046204;28;20021;-64
2023/08/14 11:18:11;;;;;;;3.80;1.10;;;;;;;31.49;50.16;100849.78;5046551;28;20111;-64
2023/08/14 11:20:38;;;;;;;1.08;0.95;;;;;;;31.54;49.84;100843.47;5046524;28;20036;-64
2023/08/14 11:23:05;;;;;;;0.80;0.60;;;;;;;31.61;50.46;100840.25;5044181;28;20048;-64
2023/08/14 11:25:33;;;;;;;1.23;0.82;;;;;;;31.83;50.84;100839.63;5048090;28;20052;-64
2023/08/14 11:27:58;;;;;;;0.57;0.50;;;;;;;31.92;48.57;100843.00;5045751;28;20154;-64